Time;durP1;ratioP1;P1;durP2;ratioP2;P2;SDS_P1;SDS_P2;PMS_P1;PMS_P2;Temp;Humidity;BMP_temperature;BMP_pressure;BME280_temperature;BME280_humidity;BME280_pressure;Samples;Min_cycle;Max_cycle;Signal;HPM_P1;HPM_P2
2022/05/13 00:01:50;;;;;;;9.57;2.10;;;;;;;9.21;75.88;101694.56;4998953;28;20034;-83
2022/05/13 00:04:16;;;;;;;11.50;3.23;;;;;;;9.21;76.23;101691.00;4998734;28;20426;-83
2022/05/13 00:06:41;;;;;;;8.37;2.00;;;;;;;9.19;76.50;101691.19;4998395;28;20034;-83
2022/05/13 00:09:07;;;;;;;10.35;2.30;;;;;;;9.14;76.85;101682.81;4998401;28;20060;-83
2022/05/13 00:11:32;;;;;;;12.03;2.23;;;;;;;9.12;77.04;101685.69;4982230;28;20034;-83
2022/05/13 00:13:58;;;;;;;14.73;2.67;;;;;;;9.09;77.53;101685.22;5015763;28;20382;-83
2022/05/13 00:16:23;;;;;;;12.60;2.60;;;;;;;9.07;78.06;101693.53;4981660;28;20091;-83
2022/05/13 00:18:49;;;;;;;10.00;2.50;;;;;;;9.05;77.94;101692.00;4982236;28;20029;-83
2022/05/13 00:21:15;;;;;;;13.53;2.70;;;;;;;9.00;79.04;101689.88;4981803;28;20533;-83
2022/05/13 00:23:40;;;;;;;10.68;3.00;;;;;;;8.98;78.78;101694.63;4982187;28;20036;-83
2022/05/13 00:26:05;;;;;;;11.57;2.50;;;;;;;8.95;78.48;101693.13;4997907;28;20034;-83
2022/05/13 00:28:31;;;;;;;13.33;2.93;;;;;;;8.93;78.75;101694.31;4982008;28;20036;-83
2022/05/13 00:30:59;;;;;;;11.93;2.97;;;;;;;8.89;78.71;101688.47;4998088;28;20030;-83
2022/05/13 00:33:25;;;;;;;12.03;3.00;;;;;;;8.85;79.38;101681.72;4997976;28;20347;-83
2022/05/13 00:35:50;;;;;;;9.48;2.70;;;;;;;8.79;79.48;101679.75;4998213;28;20462;-83
2022/05/13 00:38:17;;;;;;;13.50;2.80;;;;;;;8.75;79.63;101682.00;4997794;28;20034;-83
2022/05/13 00:40:44;;;;;;;7.85;2.38;;;;;;;8.72;80.01;101686.91;4998226;28;20030;-82
2022/05/13 00:43:12;;;;;;;14.27;3.42;;;;;;;8.68;80.26;101682.88;4997860;28;20490;-83
2022/05/13 00:45:38;;;;;;;11.82;2.72;;;;;;;8.67;80.93;101692.06;4997891;28;20037;-83
2022/05/13 00:48:04;;;;;;;11.27;3.03;;;;;;;8.65;80.31;101683.25;5014688;28;20547;-83
2022/05/13 00:50:34;;;;;;;10.43;2.90;;;;;;;8.62;80.70;101689.03;4997624;28;20084;-83
2022/05/13 00:53:00;;;;;;;6.88;2.70;;;;;;;8.62;80.72;101687.16;5015579;28;20026;-83
2022/05/13 00:55:35;;;;;;;13.52;3.15;;;;;;;8.63;79.59;101674.50;4997986;28;20135;-83
2022/05/13 00:58:04;;;;;;;14.75;3.40;;;;;;;8.64;79.71;101682.44;4997824;28;20220;-82
2022/05/13 01:00:29;;;;;;;9.13;2.20;;;;;;;8.60;78.94;101684.63;5014933;28;20492;-83
2022/05/13 01:02:55;;;;;;;6.82;2.35;;;;;;;8.62;78.33;101686.34;4996411;28;20034;-83
2022/05/13 01:05:21;;;;;;;9.50;2.28;;;;;;;8.58;78.02;101683.16;4981290;28;20057;-83
2022/05/13 01:07:50;;;;;;;11.10;2.10;;;;;;;8.59;77.84;101682.97;4981037;28;20517;-82
2022/05/13 01:10:19;;;;;;;9.60;1.70;;;;;;;8.60;77.46;101687.34;4997878;28;20057;-82
2022/05/13 01:12:50;;;;;;;10.30;1.88;;;;;;;8.54;77.37;101689.94;4997218;28;20120;-83
2022/05/13 01:15:22;;;;;;;8.68;1.85;;;;;;;8.54;76.53;101682.66;4997336;28;20045;-83
2022/05/13 01:18:06;;;;;;;7.35;1.90;;;;;;;8.50;77.23;101686.75;5014252;28;20473;-83
2022/05/13 01:20:46;;;;;;;8.37;1.97;;;;;;;8.46;77.18;101682.75;4996798;28;20512;-83
2022/05/13 01:23:17;;;;;;;5.95;1.38;;;;;;;8.45;77.11;101683.75;5014688;28;20068;-83
2022/05/13 01:25:56;;;;;;;9.93;1.63;;;;;;;8.42;76.74;101679.50;4996984;28;20061;-83
2022/05/13 01:28:29;;;;;;;7.47;2.13;;;;;;;8.40;77.11;101680.72;5014494;28;20060;-83
2022/05/13 01:30:59;;;;;;;10.25;1.63;;;;;;;8.38;76.96;101675.47;4997241;28;20385;-83
2022/05/13 01:33:25;;;;;;;8.27;1.80;;;;;;;8.36;77.18;101676.72;5014401;28;20397;-83
2022/05/13 01:35:54;;;;;;;9.00;1.63;;;;;;;8.36;77.09;101685.66;5014408;28;20564;-83
2022/05/13 01:38:22;;;;;;;8.07;1.52;;;;;;;8.39;76.91;101684.47;5014373;28;20061;-83
2022/05/13 01:40:47;;;;;;;10.77;1.50;;;;;;;8.41;76.62;101690.50;4996612;28;20037;-83
2022/05/13 01:43:13;;;;;;;7.53;1.50;;;;;;;8.45;76.53;101681.06;4996632;28;20038;-83
2022/05/13 01:45:39;;;;;;;7.57;1.50;;;;;;;8.57;76.88;101686.88;4996738;28;20037;-83
2022/05/13 01:48:06;;;;;;;3.13;1.23;;;;;;;8.66;75.95;101691.19;4964152;28;20048;-83
2022/05/13 01:50:33;;;;;;;5.60;1.33;;;;;;;8.74;75.40;101692.97;4996737;28;20079;-83
2022/05/13 01:52:58;;;;;;;8.52;1.88;;;;;;;8.77;75.53;101690.75;4980441;28;20030;-83
2022/05/13 01:55:24;;;;;;;5.73;1.37;;;;;;;8.80;74.73;101689.56;4980259;28;20046;-83
2022/05/13 01:57:50;;;;;;;5.03;1.30;;;;;;;8.77;75.49;101690.75;4996320;28;20065;-83
2022/05/13 02:00:16;;;;;;;6.43;1.30;;;;;;;8.82;74.72;101692.91;4996507;28;20030;-82
2022/05/13 02:05:27;;;;;;;4.88;1.17;;;;;;;8.90;74.86;101689.28;5014336;28;20053;-83
2022/05/13 02:07:52;;;;;;;8.23;1.20;;;;;;;8.93;75.01;101687.06;4996411;28;20101;-83
2022/05/13 02:10:18;;;;;;;4.82;1.30;;;;;;;8.95;74.56;101689.59;4996253;28;20034;-83
2022/05/13 02:12:44;;;;;;;9.10;1.80;;;;;;;9.00;74.95;101681.75;5013698;28;20033;-83
2022/05/13 02:15:09;;;;;;;7.17;1.30;;;;;;;9.01;75.13;101690.72;4963957;28;20405;-83
2022/05/13 02:17:36;;;;;;;5.70;1.43;;;;;;;9.04;75.58;101687.66;4995952;28;20080;-83
2022/05/13 02:20:02;;;;;;;6.75;1.30;;;;;;;9.06;74.81;101678.28;4995962;28;20046;-83
2022/05/13 02:22:28;;;;;;;10.85;1.95;;;;;;;9.06;74.96;101677.47;4980361;28;20033;-83
2022/05/13 02:24:53;;;;;;;8.53;1.67;;;;;;;9.01;75.27;101674.47;4963864;28;20034;-83
2022/05/13 02:27:18;;;;;;;7.90;1.20;;;;;;;8.96;75.40;101675.00;4980305;28;20034;-83
2022/05/13 02:29:44;;;;;;;8.23;1.57;;;;;;;8.93;76.10;101692.47;4979841;28;20044;-83
2022/05/13 02:32:09;;;;;;;11.30;1.40;;;;;;;8.95;75.83;101676.88;4996253;28;20034;-83
2022/05/13 02:34:36;;;;;;;9.38;1.30;;;;;;;9.00;76.09;101683.63;4980038;28;20492;-83
2022/05/13 02:37:03;;;;;;;10.20;1.37;;;;;;;9.01;75.90;101677.19;4996423;28;20462;-83
2022/05/13 02:39:29;;;;;;;9.13;1.30;;;;;;;9.03;75.68;101673.25;4995772;28;20056;-83
2022/05/13 02:41:54;;;;;;;5.40;1.38;;;;;;;9.04;76.47;101668.69;4995794;28;20474;-83
2022/05/13 02:44:21;;;;;;;5.60;1.40;;;;;;;9.07;75.95;101674.56;4963832;28;20130;-82
2022/05/13 02:46:47;;;;;;;8.52;1.70;;;;;;;9.12;76.52;101687.53;4963548;28;20026;-82
2022/05/13 02:49:13;;;;;;;7.25;1.50;;;;;;;9.15;76.23;101675.50;4995919;28;20026;-82
2022/05/13 02:51:39;;;;;;;8.50;2.23;;;;;;;9.20;76.40;101675.81;4995891;28;20045;-83
2022/05/13 02:54:05;;;;;;;10.02;1.90;;;;;;;9.21;76.65;101674.75;4995927;28;20038;-83
2022/05/13 02:56:31;;;;;;;7.90;1.73;;;;;;;9.22;76.74;101668.34;5013632;28;20091;-83
2022/05/13 02:58:56;;;;;;;8.53;1.97;;;;;;;9.24;76.87;101669.84;4995923;28;20030;-83
2022/05/13 03:01:22;;;;;;;8.83;1.60;;;;;;;9.27;77.14;101672.16;4980108;28;20034;-83
2022/05/13 03:03:49;;;;;;;14.20;2.33;;;;;;;9.32;77.43;101679.72;4995720;28;20529;-83
2022/05/13 03:06:15;;;;;;;13.07;1.80;;;;;;;9.34;77.22;101679.53;5013358;28;20281;-83
2022/05/13 03:08:41;;;;;;;9.52;2.45;;;;;;;9.35;77.80;101670.41;4979650;28;20041;-83
2022/05/13 03:11:07;;;;;;;11.30;2.40;;;;;;;9.36;78.04;101681.03;5013931;28;20030;-83
2022/05/13 03:13:34;;;;;;;9.82;2.28;;;;;;;9.40;78.13;101674.19;4995869;28;20512;-82
2022/05/13 03:16:08;;;;;;;10.80;2.10;;;;;;;9.44;78.12;101683.63;4995632;28;20034;-83
2022/05/13 03:18:33;;;;;;;10.95;2.28;;;;;;;9.45;78.39;101670.94;4995441;28;20037;-83
2022/05/13 03:20:59;;;;;;;9.80;2.38;;;;;;;9.46;78.38;101675.31;4979600;28;20057;-83
2022/05/13 03:23:24;;;;;;;10.43;2.17;;;;;;;9.47;78.28;101672.41;4995583;28;20041;-83
2022/05/13 03:25:50;;;;;;;11.03;2.53;;;;;;;9.46;78.51;101665.34;5014357;28;20038;-83
2022/05/13 03:28:15;;;;;;;11.73;2.20;;;;;;;9.47;78.51;101664.28;4983266;28;20065;-82
2022/05/13 03:30:41;;;;;;;10.15;2.38;;;;;;;9.45;78.68;101658.25;4983013;28;20038;-83
2022/05/13 03:33:06;;;;;;;13.07;2.40;;;;;;;9.41;78.85;101656.94;4999225;28;20041;-83
2022/05/13 03:35:32;;;;;;;9.80;2.23;;;;;;;9.36;79.34;101661.22;4983022;28;20489;-83
2022/05/13 03:37:57;;;;;;;14.83;2.50;;;;;;;9.27;79.73;101661.34;4966520;28;20045;-83
2022/05/13 03:40:23;;;;;;;16.17;2.40;;;;;;;9.23;80.17;101661.91;5016564;28;20045;-83
2022/05/13 03:42:49;;;;;;;11.80;3.33;;;;;;;9.19;80.42;101658.72;4998923;28;20113;-82
2022/05/13 03:45:16;;;;;;;14.55;2.50;;;;;;;9.18;80.46;101670.56;5016488;28;20068;-83
2022/05/13 03:47:44;;;;;;;8.63;2.40;;;;;;;9.15;81.04;101670.94;5015892;28;20034;-83
2022/05/13 03:50:10;;;;;;;13.70;2.47;;;;;;;9.14;80.94;101671.97;4998729;28;20500;-83
2022/05/13 03:52:36;;;;;;;13.95;2.85;;;;;;;9.10;81.54;101657.94;4982745;28;20076;-83
2022/05/13 03:55:03;;;;;;;9.55;2.60;;;;;;;9.07;81.95;101671.88;4998825;28;20029;-83
2022/05/13 03:57:28;;;;;;;12.23;2.97;;;;;;;9.06;81.73;101666.63;4982774;28;20041;-83
2022/05/13 03:59:53;;;;;;;9.40;2.63;;;;;;;9.01;81.72;101669.91;4998508;28;20034;-83
2022/05/13 04:02:19;;;;;;;17.67;3.00;;;;;;;8.99;81.85;101668.41;4998968;28;20030;-83
2022/05/13 04:10:12;;;;;;;13.80;3.17;;;;;;;8.95;82.45;101663.34;4987644;28;20092;-83
2022/05/13 04:16:07;;;;;;;14.07;2.72;;;;;;;8.95;82.90;101678.75;4987418;28;20508;-83
2022/05/13 04:18:07;;;;;;;10.83;3.47;;;;;;;8.94;83.14;101672.50;4977074;28;20053;-83
2022/05/13 04:20:34;;;;;;;13.88;2.88;;;;;;;8.96;82.79;101675.00;4998135;28;20053;-83
2022/05/13 04:23:00;;;;;;;13.00;2.70;;;;;;;8.95;83.25;101667.94;4998409;28;20385;-83
2022/05/13 04:25:26;;;;;;;19.33;3.30;;;;;;;8.95;83.11;101673.34;4998163;28;20038;-82
2022/05/13 04:27:51;;;;;;;12.43;2.90;;;;;;;8.97;83.53;101675.88;4981839;28;20034;-82
2022/05/13 04:30:17;;;;;;;11.73;3.03;;;;;;;9.02;82.86;101678.84;4997983;28;20036;-83
2022/05/13 04:32:43;;;;;;;13.05;4.05;;;;;;;9.00;83.09;101676.34;4981960;28;20026;-83
2022/05/13 04:35:08;;;;;;;13.67;3.13;;;;;;;9.01;83.09;101675.31;4997871;28;20446;-83
2022/05/13 04:37:33;;;;;;;13.63;2.90;;;;;;;9.04;83.09;101671.41;4965441;28;20033;-83
2022/05/13 04:39:59;;;;;;;11.23;3.03;;;;;;;9.06;82.99;101681.00;4981584;28;20030;-82
2022/05/13 04:45:09;;;;;;;18.23;3.35;;;;;;;9.12;82.92;101690.25;5000956;28;20049;-82
2022/05/13 04:50:32;;;;;;;22.00;3.50;;;;;;;9.27;82.78;101701.97;4970122;28;20038;-82
2022/05/13 04:52:57;;;;;;;19.20;3.70;;;;;;;9.36;81.83;101704.56;4997614;28;20040;-83
2022/05/13 04:55:24;;;;;;;18.63;3.80;;;;;;;9.42;82.22;101710.09;4965695;28;20061;-83
2022/05/13 04:57:51;;;;;;;11.38;3.30;;;;;;;9.48;81.77;101706.63;4997705;28;20477;-82
2022/05/13 05:00:16;;;;;;;15.93;3.15;;;;;;;9.54;81.36;101705.03;4997670;28;20033;-83
2022/05/13 05:02:42;;;;;;;18.40;3.40;;;;;;;9.59;81.55;101702.59;4981474;28;20096;-82
2022/05/13 05:05:07;;;;;;;14.47;3.10;;;;;;;9.66;81.10;101722.50;4965124;28;20268;-83
2022/05/13 05:07:33;;;;;;;13.97;3.37;;;;;;;9.70;81.03;101722.09;5014667;28;20065;-83
2022/05/13 05:09:58;;;;;;;13.67;3.27;;;;;;;9.70;80.92;101706.72;4981141;28;20556;-83
2022/05/13 05:12:27;;;;;;;16.55;3.35;;;;;;;9.76;80.65;101722.22;4964820;28;20493;-83
2022/05/13 05:14:52;;;;;;;13.43;3.23;;;;;;;9.79;80.26;101712.88;4997992;28;20133;-83
2022/05/13 05:17:17;;;;;;;18.98;3.63;;;;;;;9.81;81.03;101722.47;4964565;28;20041;-82
2022/05/13 05:19:43;;;;;;;14.43;3.50;;;;;;;9.88;80.48;101725.28;4996768;28;20524;-83
2022/05/13 05:22:08;;;;;;;15.27;3.40;;;;;;;9.95;80.21;101733.47;4964777;28;20030;-82
2022/05/13 05:24:33;;;;;;;12.80;3.10;;;;;;;10.03;79.92;101733.38;4980552;28;20037;-83
2022/05/13 05:26:59;;;;;;;10.63;2.93;;;;;;;10.07;79.88;101726.56;4996709;28;20355;-83
2022/05/13 05:29:25;;;;;;;14.87;3.47;;;;;;;10.16;79.90;101733.53;5014493;28;20453;-81
2022/05/13 05:31:50;;;;;;;15.93;3.08;;;;;;;10.32;78.60;101729.75;4964747;28;20469;-81
2022/05/13 05:34:18;;;;;;;13.30;2.93;;;;;;;10.42;78.75;101739.47;4964545;28;20466;-80
2022/05/13 05:36:43;;;;;;;15.80;3.03;;;;;;;10.57;78.30;101753.84;4980640;28;20428;-80
2022/05/13 05:39:10;;;;;;;12.32;3.40;;;;;;;10.54;77.80;101748.81;4996597;28;20038;-80
2022/05/13 05:41:35;;;;;;;17.33;4.00;;;;;;;10.60;77.82;101747.16;4964673;28;20036;-80
2022/05/13 05:44:01;;;;;;;12.93;2.97;;;;;;;10.70;77.54;101758.53;4996595;28;20026;-81
2022/05/13 05:46:26;;;;;;;14.07;3.13;;;;;;;10.79;76.87;101764.69;4996514;28;20029;-82
2022/05/13 05:48:52;;;;;;;16.43;3.23;;;;;;;10.81;77.07;101754.50;4979504;28;20038;-81
2022/05/13 05:51:17;;;;;;;16.10;3.43;;;;;;;10.84;76.99;101759.53;5014053;28;20029;-81
2022/05/13 05:59:11;;;;;;;15.38;3.25;;;;;;;11.25;75.96;101772.41;4999205;28;20559;-82
2022/05/13 06:01:36;;;;;;;9.75;3.08;;;;;;;11.33;75.63;101780.38;5013949;28;20053;-82
2022/05/13 06:04:03;;;;;;;13.77;3.20;;;;;;;11.41;75.19;101779.41;4996205;28;20466;-82
2022/05/13 06:06:29;;;;;;;11.25;3.40;;;;;;;11.41;75.54;101782.97;4996372;28;20037;-81
2022/05/13 06:08:55;;;;;;;14.95;3.60;;;;;;;11.48;75.35;101772.13;5013774;28;20030;-82
2022/05/13 06:11:23;;;;;;;11.43;3.63;;;;;;;11.56;74.86;101785.56;4996102;28;20438;-82
2022/05/13 06:13:54;;;;;;;12.97;3.73;;;;;;;11.54;75.00;101778.66;4996142;28;20436;-82
2022/05/13 06:16:23;;;;;;;17.42;3.63;;;;;;;11.72;75.13;101780.84;4995592;28;20040;-81
2022/05/13 06:18:49;;;;;;;13.43;4.35;;;;;;;11.95;74.24;101777.03;4995390;28;20173;-82
2022/05/13 06:21:18;;;;;;;17.88;4.05;;;;;;;12.07;74.13;101783.56;4995785;28;20085;-82
2022/05/13 06:23:43;;;;;;;15.23;4.03;;;;;;;12.24;73.15;101792.25;4963659;28;20470;-82
2022/05/13 06:26:08;;;;;;;20.53;4.43;;;;;;;12.31;73.14;101787.63;4996127;28;20045;-82
2022/05/13 06:28:44;;;;;;;15.73;4.27;;;;;;;12.48;72.81;101792.75;4974780;28;20082;-81
2022/05/13 06:31:10;;;;;;;18.10;4.25;;;;;;;12.51;72.28;101792.31;4993467;28;20030;-82
2022/05/13 06:33:42;;;;;;;16.02;3.90;;;;;;;12.44;72.27;101803.19;4976175;28;20034;-82
2022/05/13 06:36:08;;;;;;;10.73;3.73;;;;;;;12.51;72.99;101801.31;4994805;28;20041;-82
2022/05/13 06:38:33;;;;;;;15.73;4.20;;;;;;;12.70;72.66;101796.16;4960255;28;20033;-82
2022/05/13 06:40:59;;;;;;;17.90;4.10;;;;;;;12.91;71.88;101806.84;4976352;28;20030;-82
2022/05/13 06:43:24;;;;;;;13.73;3.80;;;;;;;13.01;71.42;101803.72;4976365;28;20141;-82
2022/05/13 06:45:51;;;;;;;15.07;3.63;;;;;;;13.16;70.76;101809.78;4959880;28;20192;-82
2022/05/13 06:48:16;;;;;;;9.10;3.90;;;;;;;13.16;70.74;101811.69;4993400;28;20034;-82
2022/05/13 06:50:43;;;;;;;15.57;4.10;;;;;;;13.22;70.72;101801.84;4976490;28;20030;-82
2022/05/13 06:53:09;;;;;;;13.90;5.05;;;;;;;13.39;70.29;101818.63;4959865;28;20031;-82
2022/05/13 06:55:34;;;;;;;16.08;4.28;;;;;;;13.46;69.88;101825.78;4976179;28;20100;-82
2022/05/13 06:58:00;;;;;;;19.00;4.37;;;;;;;13.45;69.52;101815.91;4976168;28;20034;-82
2022/05/13 07:00:26;;;;;;;18.17;4.33;;;;;;;13.59;69.63;101813.16;4976861;28;20042;-82
2022/05/13 07:02:51;;;;;;;16.27;4.72;;;;;;;13.65;68.84;101815.03;4964044;28;20470;-82
2022/05/13 07:05:17;;;;;;;17.90;4.80;;;;;;;13.65;69.17;101850.50;4980446;28;20474;-82
2022/05/13 07:07:43;;;;;;;21.42;4.63;;;;;;;13.62;69.46;101819.03;4980047;28;20026;-82
2022/05/13 07:10:09;;;;;;;13.43;4.23;;;;;;;13.64;69.19;101806.03;4979926;28;20034;-82
2022/05/13 07:12:36;;;;;;;14.45;4.85;;;;;;;13.70;68.93;101818.00;4996299;28;20053;-82
2022/05/13 07:15:03;;;;;;;20.42;5.25;;;;;;;13.80;68.49;101815.66;4963819;28;20498;-82
2022/05/13 07:17:30;;;;;;;23.17;5.90;;;;;;;13.77;69.21;101816.06;4979434;28;20038;-82
2022/05/13 07:19:57;;;;;;;19.87;5.33;;;;;;;13.83;68.47;101819.81;4996912;28;20402;-82
2022/05/13 07:22:23;;;;;;;19.10;5.10;;;;;;;13.95;67.78;101809.94;4996272;28;20041;-82
2022/05/13 07:24:51;;;;;;;16.00;4.97;;;;;;;13.92;67.65;101818.56;4963669;28;20034;-82
2022/05/13 07:27:16;;;;;;;14.30;5.22;;;;;;;13.83;67.95;101808.91;4997023;28;20033;-82
2022/05/13 07:29:42;;;;;;;14.63;5.63;;;;;;;13.90;67.64;101836.19;4979598;28;20414;-82
2022/05/13 07:32:08;;;;;;;18.17;5.70;;;;;;;13.85;67.48;101820.47;4963694;28;20035;-82
2022/05/13 07:34:33;;;;;;;19.65;5.78;;;;;;;13.93;67.58;101817.50;4979745;28;20497;-82
2022/05/13 07:36:59;;;;;;;15.13;5.50;;;;;;;14.09;66.88;101827.09;4979593;28;20034;-82
2022/05/13 07:42:12;;;;;;;14.80;5.63;;;;;;;14.09;66.30;101824.38;4996696;28;20406;-84
2022/05/13 07:44:38;;;;;;;15.70;4.80;;;;;;;14.17;65.68;101831.47;4963345;28;20050;-84
2022/05/13 07:47:05;;;;;;;13.30;5.22;;;;;;;14.25;65.97;101830.44;4978816;28;20026;-83
2022/05/13 07:49:31;;;;;;;14.70;5.07;;;;;;;14.27;65.67;101817.38;4996496;28;20041;-82
2022/05/13 07:51:56;;;;;;;15.13;4.87;;;;;;;14.30;64.94;101830.59;5012444;28;20042;-83
2022/05/13 07:54:22;;;;;;;15.75;4.90;;;;;;;14.45;63.90;101830.31;4998602;28;20536;-82
2022/05/13 07:56:47;;;;;;;12.93;5.27;;;;;;;14.49;64.32;101839.75;4966037;28;20069;-83
2022/05/13 07:59:13;;;;;;;13.23;4.70;;;;;;;14.47;64.00;101837.25;4966232;28;20036;-82
2022/05/13 08:01:41;;;;;;;12.48;4.55;;;;;;;14.48;64.16;101838.94;5015933;28;20492;-83
2022/05/13 08:04:07;;;;;;;14.60;5.00;;;;;;;14.53;63.93;101836.38;5014554;28;20061;-82
2022/05/13 08:06:32;;;;;;;13.25;5.00;;;;;;;14.54;63.73;101837.19;4981877;28;20465;-82
2022/05/13 08:08:58;;;;;;;12.00;5.07;;;;;;;14.73;63.12;101839.03;4998279;28;20038;-83
2022/05/13 08:11:26;;;;;;;12.03;5.00;;;;;;;14.83;62.53;101849.47;4997735;28;20116;-82
2022/05/13 08:13:52;;;;;;;15.03;5.10;;;;;;;14.86;62.17;101853.66;4998063;28;20272;-82
2022/05/13 08:16:21;;;;;;;10.07;4.65;;;;;;;14.90;62.32;101844.81;4997960;28;20034;-83
2022/05/13 08:18:47;;;;;;;13.90;5.30;;;;;;;14.95;61.66;101846.88;4997809;28;20037;-84
2022/05/13 08:21:13;;;;;;;17.17;4.40;;;;;;;15.09;61.20;101847.66;4998021;28;20058;-84
2022/05/13 08:23:40;;;;;;;11.88;3.63;;;;;;;15.25;60.34;101840.78;4981977;28;20030;-83
2022/05/13 08:26:06;;;;;;;13.90;4.00;;;;;;;15.32;59.40;101854.41;4997985;28;20389;-83
2022/05/13 08:28:32;;;;;;;9.85;4.22;;;;;;;15.14;59.93;101856.00;4998161;28;20120;-83
2022/05/13 08:30:58;;;;;;;20.92;4.75;;;;;;;15.03;60.41;101851.25;5015523;28;20589;-83
2022/05/13 08:33:23;;;;;;;13.97;3.67;;;;;;;15.09;59.17;101853.94;4981695;28;20494;-82
2022/05/13 08:35:51;;;;;;;11.87;3.40;;;;;;;15.06;59.33;101853.56;4981307;28;20045;-82
2022/05/13 08:38:21;;;;;;;17.35;3.47;;;;;;;15.06;59.57;101851.66;5015336;28;20420;-83
2022/05/13 08:40:50;;;;;;;13.10;4.85;;;;;;;15.13;60.02;101851.59;4976546;28;20030;-82
2022/05/13 08:43:20;;;;;;;8.32;3.30;;;;;;;15.04;59.06;101878.38;4973066;28;20041;-82
2022/05/13 08:45:52;;;;;;;12.80;3.70;;;;;;;15.01;58.76;101854.19;4995086;28;20097;-82
2022/05/13 08:48:30;;;;;;;10.67;3.80;;;;;;;15.26;59.48;101853.38;4994701;28;20425;-82
2022/05/13 08:51:15;;;;;;;11.32;3.45;;;;;;;15.58;58.63;101876.06;4994828;28;20037;-82
2022/05/13 08:53:52;;;;;;;10.80;3.80;;;;;;;15.69;58.85;101854.50;4994940;28;20116;-82
2022/05/13 08:56:29;;;;;;;10.07;3.75;;;;;;;15.84;57.13;101857.75;4995352;28;20026;-82
2022/05/13 08:59:11;;;;;;;12.95;3.22;;;;;;;15.94;55.62;101859.94;4983426;28;20040;-82
2022/05/13 09:01:41;;;;;;;9.30;3.40;;;;;;;16.17;55.69;101855.72;4996966;28;20108;-82
2022/05/13 09:04:21;;;;;;;8.65;3.13;;;;;;;16.34;55.57;101864.97;4996757;28;20041;-82
2022/05/13 09:06:53;;;;;;;12.07;2.70;;;;;;;16.26;54.79;101855.16;4996478;28;20030;-82
2022/05/13 09:09:19;;;;;;;14.38;3.03;;;;;;;16.43;54.49;101863.63;5013215;28;20461;-82
2022/05/13 09:11:57;;;;;;;7.60;2.58;;;;;;;16.75;53.78;101857.09;5013879;28;20042;-82
2022/05/13 09:14:47;;;;;;;12.40;4.07;;;;;;;16.76;52.67;101854.13;4996773;28;20041;-82
2022/05/13 09:17:39;;;;;;;8.88;2.70;;;;;;;16.67;52.99;101847.28;5013821;28;20057;-82
2022/05/13 09:20:10;;;;;;;7.20;2.70;;;;;;;16.59;52.70;101870.34;4996296;28;20111;-82
2022/05/13 09:22:43;;;;;;;14.55;3.17;;;;;;;16.71;53.30;101845.78;4996849;28;20054;-83
2022/05/13 09:25:24;;;;;;;11.05;2.47;;;;;;;17.03;51.42;101861.97;4997017;28;20386;-82
2022/05/13 09:27:59;;;;;;;8.67;2.83;;;;;;;17.07;50.16;101859.63;5014555;28;20033;-82
2022/05/13 09:30:33;;;;;;;11.25;2.20;;;;;;;17.03;50.79;101861.16;4996816;28;20029;-82
2022/05/13 09:33:20;;;;;;;10.32;2.78;;;;;;;16.93;50.80;101864.44;4996824;28;20026;-82
2022/05/13 09:35:48;;;;;;;15.50;2.95;;;;;;;16.77;50.52;101863.16;5014466;28;20030;-82
2022/05/13 09:38:21;;;;;;;11.90;3.00;;;;;;;16.62;51.94;101869.91;5013940;28;20068;-82
2022/05/13 09:41:01;;;;;;;8.33;2.53;;;;;;;16.78;51.25;101871.16;4996447;28;20033;-82
2022/05/13 09:43:37;;;;;;;7.63;2.50;;;;;;;17.05;49.76;101868.06;4996684;28;20161;-82
2022/05/13 09:46:10;;;;;;;9.32;2.80;;;;;;;16.99;48.80;101875.31;5014033;28;20037;-82
2022/05/13 09:48:39;;;;;;;8.43;2.40;;;;;;;17.08;49.12;101880.47;4996177;28;20033;-82
2022/05/13 09:51:22;;;;;;;7.47;2.50;;;;;;;17.13;49.41;101875.13;4996548;28;20037;-82
2022/05/13 09:54:26;;;;;;;7.47;2.27;;;;;;;17.22;48.53;101873.72;5014044;28;20098;-82
2022/05/13 09:57:14;;;;;;;7.45;2.25;;;;;;;17.25;48.33;101889.69;4934558;29;20044;-83
2022/05/13 09:59:54;;;;;;;6.60;2.20;;;;;;;17.34;48.79;101869.06;4993529;28;20034;-82
2022/05/13 10:02:31;;;;;;;6.35;2.00;;;;;;;17.26;47.99;101882.28;5014142;28;20116;-82
2022/05/13 10:05:17;;;;;;;8.35;2.25;;;;;;;17.10;48.25;101868.19;4996264;28;20461;-82
2022/05/13 10:07:51;;;;;;;5.80;1.70;;;;;;;17.18;47.55;101873.34;5013302;28;20062;-82
2022/05/13 10:14:00;;;;;;;7.13;1.83;;;;;;;16.98;47.03;101879.13;4915589;29;20076;-82
2022/05/13 10:16:35;;;;;;;9.07;1.98;;;;;;;16.72;48.16;101880.31;4914985;29;20507;-82
2022/05/13 10:19:29;;;;;;;9.43;2.20;;;;;;;16.56;49.57;101892.72;4991989;28;20041;-82
2022/05/13 10:22:17;;;;;;;8.97;2.37;;;;;;;16.56;49.62;101889.97;4995592;28;20062;-82
2022/05/13 10:24:49;;;;;;;7.93;2.35;;;;;;;16.74;49.32;101878.19;4995816;28;20041;-82
2022/05/13 10:27:32;;;;;;;5.53;1.98;;;;;;;16.96;49.18;101892.25;4995595;28;20044;-82
2022/05/13 10:30:09;;;;;;;10.10;2.53;;;;;;;17.34;47.24;101877.31;5013762;28;20145;-82
2022/05/13 10:33:02;;;;;;;13.15;2.85;;;;;;;17.65;46.99;101880.78;4996222;28;20038;-82
2022/05/13 10:35:39;;;;;;;8.70;2.10;;;;;;;17.40;47.26;101880.19;5015895;28;20033;-82
2022/05/13 10:38:07;;;;;;;9.00;2.40;;;;;;;17.30;46.70;101883.50;5000009;28;20034;-83
2022/05/13 10:40:37;;;;;;;8.38;2.08;;;;;;;17.43;46.27;101882.44;5015932;28;20496;-82
2022/05/13 10:43:13;;;;;;;5.82;2.00;;;;;;;17.54;46.34;101866.00;5017405;28;20037;-81
2022/05/13 10:45:41;;;;;;;6.68;2.28;;;;;;;17.94;45.71;101875.47;4999519;28;20029;-82
2022/05/13 10:48:24;;;;;;;8.50;2.33;;;;;;;18.28;45.80;101902.28;4967722;28;20030;-82
2022/05/13 10:50:55;;;;;;;7.70;2.22;;;;;;;17.93;45.39;101876.53;5017095;28;20068;-82
2022/05/13 10:53:48;;;;;;;8.18;2.17;;;;;;;17.94;46.41;101896.59;4999382;28;20022;-82
2022/05/13 10:56:24;;;;;;;9.02;2.55;;;;;;;18.08;45.60;101873.28;5017278;28;20044;-82
2022/05/13 10:59:19;;;;;;;9.13;2.30;;;;;;;17.84;45.71;101875.22;4999651;28;20034;-82
2022/05/13 11:02:11;;;;;;;9.87;1.97;;;;;;;18.35;45.22;101890.09;4999391;28;20030;-81
2022/05/13 11:05:04;;;;;;;9.13;2.50;;;;;;;19.11;43.84;101880.88;4999801;28;20034;-82
2022/05/13 11:07:49;;;;;;;8.30;2.03;;;;;;;19.46;43.28;101879.81;4999016;28;20030;-82
2022/05/13 11:10:20;;;;;;;9.23;3.05;;;;;;;19.49;42.10;101879.31;5017092;28;20037;-81
2022/05/13 11:12:54;;;;;;;6.95;2.20;;;;;;;19.46;42.06;101875.13;5015440;28;20100;-82
2022/05/13 11:15:41;;;;;;;8.00;2.20;;;;;;;20.37;40.21;101866.81;5015893;28;20124;-82
2022/05/13 11:18:15;;;;;;;6.93;1.90;;;;;;;20.20;39.43;101873.22;4998790;28;20036;-81
2022/05/13 11:21:14;;;;;;;8.98;2.22;;;;;;;19.77;40.82;101883.06;4998909;28;20157;-82
2022/05/13 11:27:06;;;;;;;8.27;1.90;;;;;;;18.87;43.56;101889.22;5017022;28;20088;-82
2022/05/13 11:29:50;;;;;;;5.70;2.40;;;;;;;18.95;43.08;101885.25;5015367;28;20040;-83
2022/05/13 11:32:33;;;;;;;5.15;1.85;;;;;;;19.21;42.57;101894.81;4999090;28;20038;-82
2022/05/13 11:35:20;;;;;;;8.65;1.90;;;;;;;20.67;39.15;101885.69;4999051;28;20034;-82
2022/05/13 11:37:46;;;;;;;6.95;2.13;;;;;;;22.46;36.34;101885.44;5015147;28;20034;-82
2022/05/13 11:40:19;;;;;;;9.88;2.08;;;;;;;23.96;33.26;101883.63;4998832;28;20355;-83
2022/05/13 11:43:22;;;;;;;5.77;2.40;;;;;;;23.95;34.17;101866.19;5016291;28;20120;-82
2022/05/13 11:46:21;;;;;;;4.97;2.10;;;;;;;23.79;33.21;101883.94;5013040;28;20042;-82
2022/05/13 11:48:50;;;;;;;9.95;2.30;;;;;;;22.70;34.27;101879.41;5015771;28;20022;-82
2022/05/13 11:51:31;;;;;;;7.47;2.10;;;;;;;23.96;32.97;101872.56;4998620;28;20026;-82
2022/05/13 11:54:00;;;;;;;5.32;2.17;;;;;;;24.57;31.66;101860.38;4998520;28;20060;-82
2022/05/13 11:56:31;;;;;;;8.20;2.70;;;;;;;22.50;34.14;101896.75;5014677;28;20033;-83
2022/05/13 11:59:03;;;;;;;6.88;2.33;;;;;;;21.46;36.35;101878.69;5015419;28;20041;-82
2022/05/13 12:01:34;;;;;;;10.88;2.70;;;;;;;21.49;36.89;101886.44;4998266;28;20061;-82
2022/05/13 12:04:15;;;;;;;12.40;2.97;;;;;;;22.48;35.51;101890.69;5015923;28;20026;-82
2022/05/13 12:06:52;;;;;;;5.35;2.63;;;;;;;22.18;35.32;101881.94;5014634;28;20034;-82
2022/05/13 12:09:29;;;;;;;8.03;2.77;;;;;;;21.76;36.27;101876.47;5014664;28;20033;-82